x

Apk - Aripeka, Fl (arpf1) Weather Station

12:54pm - Sat 26th May 2018 All times are EDT. -4 hours from GMT.

  • Wind
    6mph, 9mph gusts
  • Air Temp 83°f
  • Sea Pressure 1014mb
  • Apk - Aripeka, Fl
  • Apk - Aripeka, Fl

More Historic Weather Station data

Upgrade to MSW Pro to gain access to the past 30 days of data for over 8000 Wavebouys and Weather Stations around the globe.

Join

Comparision Forecast

View Surf forecast
   
Sat 05/26 12:54pm 6 9 mph 1014mb 83f
12:48pm 7 11 mph 1014mb 83f
11:54am 7 10 mph 1014.7mb 83f
11:48am 6 9 mph 1014.7mb 82f
10:54am 5 7 mph 1014.9mb 81f
10:48am 2 5 mph 1014.9mb 81f
9:54am 2 5 mph 1015mb 80f
9:48am 2 5 mph 1015mb 80f
8:54am 2 5 mph 1014.9mb 77f
8:48am 3 7 mph 1015mb 76f
7:54am 6 8 mph 1014.5mb 76f
7:48am 5 8 mph 1014.5mb 75f
6:54am 5 8 mph 1014mb 74f
6:48am 5 7 mph 1014mb 74f
5:54am 3 6 mph 1013.4mb 74f
5:48am 5 7 mph 1013.4mb 74f
4:54am 3 6 mph 1013.5mb 74f
4:48am 5 7 mph 1013.5mb 74f
3:54am 5 7 mph 1013.7mb 74f
3:48am 6 7 mph 1013.7mb 74f
2:54am 5 7 mph 1014.2mb 74f
2:48am 5 6 mph 1014.2mb 74f
1:54am 3 5 mph 1014.8mb 75f
1:48am 3 6 mph 1014.8mb 75f
12:54am 3 6 mph 1015.3mb 76f
12:48am 3 6 mph 1015.3mb 76f
Fri 05/25 11:54pm 3 5 mph 1015.3mb 76f
11:48pm 3 5 mph 1015.3mb 76f
10:54pm 2 3 mph 1015.7mb 76f
9:54pm 1 3 mph 1015.5mb 77f
9:48pm 2 3 mph 1015.5mb 77f
8:54pm 1 3 mph 1015.4mb 78f
8:48pm  -  2 mph 1015.4mb 77f
7:54pm 3 6 mph 1015.2mb 77f
7:48pm 3 6 mph 1015.2mb 77f
6:54pm 2 5 mph 1014.6mb 77f
6:48pm 2 6 mph 1014.8mb 76f
5:54pm  -  5 mph 1015mb -
5:48pm 1 5 mph 1015mb -
4:54pm 5 11 mph 1014.9mb 76f
4:48pm 5 9 mph 1014.7mb 76f
2:54pm 5 8 mph 1014.1mb 89f
2:48pm 5 9 mph 1014.2mb 89f
1:54pm 3 8 mph 1015mb 90f
1:48pm 5 10 mph 1015.1mb 90f
12:54pm 5 7 mph 1016.2mb 89f
12:48pm 2 5 mph 1016.2mb 88f
11:54am 7 10 mph 1016.9mb 87f
11:48am 8 15 mph 1017mb 86f
10:54am 7 10 mph 1017.3mb 85f
10:48am 5 7 mph 1017.3mb 85f
9:54am 5 9 mph 1017.5mb 82f
9:48am 6 9 mph 1017.5mb 82f
8:54am 6 8 mph 1017.2mb 81f
8:48am 6 8 mph 1017.1mb 80f
7:54am 5 7 mph 1017mb 77f
7:48am 5 8 mph 1017mb 77f
6:54am 3 6 mph 1016.4mb 75f
6:48am 3 6 mph 1016.3mb 75f
5:54am 5 7 mph 1016.2mb 75f
5:48am 5 6 mph 1016.1mb 74f
4:54am 2 5 mph 1016.1mb 75f
4:48am 2 3 mph 1016.1mb 75f
3:54am  -  2 mph 1016.3mb 76f
3:48am 1 2 mph 1016.3mb 76f
2:54am 2 3 mph 1017.1mb 76f
2:48am 2 3 mph 1017.3mb 76f
1:54am 1 2 mph 1017.6mb 77f
1:48am 1 2 mph 1017.6mb 78f
12:54am 1 2 mph 1018.3mb 78f
12:48am  -  2 mph 1018.5mb 78f
Thu 05/24 11:54pm  -  2 mph 1018.8mb 78f
11:48pm  -  2 mph 1018.8mb 78f
10:54pm 2 3 mph 1018.5mb 78f
10:48pm 3 6 mph 1018.5mb 78f
9:54pm 2 6 mph 1018.2mb 81f
9:48pm 2 3 mph 1018.2mb 80f
8:54pm 5 13 mph 1017.6mb 84f
8:48pm 5 9 mph 1017.4mb 84f
7:54pm 5 9 mph 1016.2mb 85f
7:48pm 6 9 mph 1016.1mb 85f
6:54pm 7 8 mph 1016.1mb 86f
6:48pm 7 9 mph 1016.1mb 86f
4:54pm 5 10 mph 1016.2mb 87f
4:48pm 8 10 mph 1016.3mb 86f
3:54pm 9 10 mph 1016.7mb 85f
3:48pm 9 11 mph 1016.8mb 85f
2:54pm 9 11 mph 1017.6mb 85f
2:48pm 10 11 mph 1017.6mb 85f
1:54pm 7 9 mph 1018.2mb 85f
1:48pm 7 8 mph 1018.2mb 84f
12:54pm 8 9 mph 1018.5mb 84f
12:48pm 8 9 mph 1018.6mb 84f
11:54am 7 9 mph 1018.7mb 84f
11:48am 7 8 mph 1018.8mb 84f
10:54am 1 5 mph 1019.3mb 88f
10:48am 2 3 mph 1019.3mb 88f
9:54am 3 7 mph 1019.3mb 85f
9:48am 3 5 mph 1019.3mb 84f
8:54am 2 6 mph 1019.6mb 82f
8:48am 2 5 mph 1019.5mb 81f
7:54am 2 3 mph 1019.3mb 77f
7:48am 2 3 mph 1019.3mb 76f
6:54am 2 3 mph 1018.7mb 74f
6:48am 1 2 mph 1018.7mb 74f
5:54am 2 3 mph 1018.2mb 74f
5:48am 1 2 mph 1018.2mb 74f
4:54am 1 2 mph 1018mb 74f
4:48am 2 5 mph 1018mb 74f
3:54am 2 2 mph 1017.7mb 74f
2:54am  -  1 mph 1017.9mb 77f
2:48am 1 2 mph 1017.8mb 76f
1:54am 2 3 mph 1018.5mb 77f
1:48am 1 2 mph 1018.5mb 76f
12:54am 1 1 mph 1018.9mb 77f
12:48am 1 2 mph 1018.9mb 77f
Wed 05/23 11:54pm 1 2 mph 1019.2mb 77f
11:48pm 2 3 mph 1019.1mb 77f
10:54pm 1 2 mph 1018.9mb 83f
10:48pm  -  3 mph 1018.7mb 82f
9:54pm 2 5 mph 1018.6mb 83f
9:48pm 2 6 mph 1018.6mb 82f
8:54pm 2 6 mph 1018.3mb 83f
8:48pm 2 7 mph 1018.3mb 83f
7:54pm 2 6 mph 1017.7mb 84f
7:48pm 2 6 mph 1017.5mb 83f
6:54pm 5 8 mph 1017.2mb 85f
5:54pm 9 11 mph 1017.5mb 84f
5:48pm 10 11 mph 1017.5mb 83f